sensor_id;sensor_type;location;lat;lon;timestamp;P1;durP1;ratioP1;P2;durP2;ratioP2
21810;SDS011;11067;48.788;9.208;2022-11-02T00:01:21;14.45;;;5.10;;
21810;SDS011;11067;48.788;9.208;2022-11-02T00:03:48;10.55;;;4.70;;
21810;SDS011;11067;48.788;9.208;2022-11-02T00:06:13;11.70;;;4.30;;
21810;SDS011;11067;48.788;9.208;2022-11-02T00:08:39;8.57;;;3.73;;
21810;SDS011;11067;48.788;9.208;2022-11-02T00:11:05;7.60;;;4.27;;
21810;SDS011;11067;48.788;9.208;2022-11-02T00:13:30;11.63;;;4.07;;
21810;SDS011;11067;48.788;9.208;2022-11-02T00:15:56;7.22;;;3.70;;
21810;SDS011;11067;48.788;9.208;2022-11-02T00:18:24;6.95;;;3.58;;
21810;SDS011;11067;48.788;9.208;2022-11-02T00:20:51;9.02;;;4.07;;
21810;SDS011;11067;48.788;9.208;2022-11-02T00:23:16;7.88;;;3.97;;
21810;SDS011;11067;48.788;9.208;2022-11-02T00:25:45;8.30;;;3.97;;
21810;SDS011;11067;48.788;9.208;2022-11-02T00:28:12;10.43;;;4.90;;
21810;SDS011;11067;48.788;9.208;2022-11-02T00:30:38;10.77;;;5.35;;
21810;SDS011;11067;48.788;9.208;2022-11-02T00:33:04;12.73;;;4.90;;
21810;SDS011;11067;48.788;9.208;2022-11-02T00:35:30;16.10;;;5.40;;
21810;SDS011;11067;48.788;9.208;2022-11-02T00:37:57;15.98;;;5.13;;
21810;SDS011;11067;48.788;9.208;2022-11-02T00:40:22;14.50;;;4.97;;
21810;SDS011;11067;48.788;9.208;2022-11-02T00:42:48;11.68;;;4.63;;
21810;SDS011;11067;48.788;9.208;2022-11-02T00:45:13;14.57;;;4.47;;
21810;SDS011;11067;48.788;9.208;2022-11-02T00:47:39;11.70;;;4.67;;
21810;SDS011;11067;48.788;9.208;2022-11-02T00:50:05;9.93;;;4.40;;
21810;SDS011;11067;48.788;9.208;2022-11-02T00:52:30;10.50;;;5.23;;
21810;SDS011;11067;48.788;9.208;2022-11-02T00:54:56;12.37;;;4.63;;
21810;SDS011;11067;48.788;9.208;2022-11-02T00:57:21;10.25;;;5.22;;
21810;SDS011;11067;48.788;9.208;2022-11-02T00:59:47;11.00;;;4.70;;
21810;SDS011;11067;48.788;9.208;2022-11-02T01:02:13;7.78;;;4.47;;
21810;SDS011;11067;48.788;9.208;2022-11-02T01:04:38;13.53;;;5.10;;
21810;SDS011;11067;48.788;9.208;2022-11-02T01:07:04;11.27;;;4.60;;
21810;SDS011;11067;48.788;9.208;2022-11-02T01:09:30;9.45;;;4.70;;
21810;SDS011;11067;48.788;9.208;2022-11-02T01:11:55;13.23;;;5.18;;
21810;SDS011;11067;48.788;9.208;2022-11-02T01:14:21;13.90;;;4.78;;
21810;SDS011;11067;48.788;9.208;2022-11-02T01:16:47;10.63;;;5.53;;
21810;SDS011;11067;48.788;9.208;2022-11-02T01:19:12;10.47;;;4.60;;
21810;SDS011;11067;48.788;9.208;2022-11-02T01:21:38;10.17;;;4.90;;
21810;SDS011;11067;48.788;9.208;2022-11-02T01:24:04;11.03;;;4.63;;
21810;SDS011;11067;48.788;9.208;2022-11-02T01:26:30;10.50;;;5.23;;
21810;SDS011;11067;48.788;9.208;2022-11-02T01:28:55;8.00;;;4.53;;
21810;SDS011;11067;48.788;9.208;2022-11-02T01:31:21;6.50;;;3.17;;
21810;SDS011;11067;48.788;9.208;2022-11-02T01:33:46;6.13;;;3.13;;
21810;SDS011;11067;48.788;9.208;2022-11-02T01:36:13;8.83;;;2.87;;
21810;SDS011;11067;48.788;9.208;2022-11-02T01:38:39;11.20;;;3.15;;
21810;SDS011;11067;48.788;9.208;2022-11-02T01:41:05;7.57;;;2.58;;
21810;SDS011;11067;48.788;9.208;2022-11-02T01:43:32;5.57;;;2.20;;
21810;SDS011;11067;48.788;9.208;2022-11-02T01:51:08;6.55;;;1.80;;
21810;SDS011;11067;48.788;9.208;2022-11-02T01:53:36;3.88;;;1.92;;
21810;SDS011;11067;48.788;9.208;2022-11-02T01:56:05;7.30;;;2.10;;
21810;SDS011;11067;48.788;9.208;2022-11-02T01:58:31;3.22;;;1.92;;
21810;SDS011;11067;48.788;9.208;2022-11-02T02:00:59;5.70;;;1.70;;
21810;SDS011;11067;48.788;9.208;2022-11-02T02:03:25;6.57;;;3.47;;
21810;SDS011;11067;48.788;9.208;2022-11-02T02:05:55;7.20;;;3.33;;
21810;SDS011;11067;48.788;9.208;2022-11-02T02:08:24;8.10;;;4.55;;
21810;SDS011;11067;48.788;9.208;2022-11-02T02:10:54;9.98;;;4.20;;
21810;SDS011;11067;48.788;9.208;2022-11-02T02:13:20;8.32;;;4.25;;
21810;SDS011;11067;48.788;9.208;2022-11-02T02:15:53;6.25;;;4.30;;
21810;SDS011;11067;48.788;9.208;2022-11-02T02:18:29;9.60;;;4.47;;
21810;SDS011;11067;48.788;9.208;2022-11-02T02:27:04;8.43;;;4.13;;
21810;SDS011;11067;48.788;9.208;2022-11-02T02:35:10;8.68;;;3.88;;
21810;SDS011;11067;48.788;9.208;2022-11-02T02:37:49;8.73;;;4.05;;
21810;SDS011;11067;48.788;9.208;2022-11-02T02:40:26;7.05;;;3.80;;
21810;SDS011;11067;48.788;9.208;2022-11-02T02:43:05;9.48;;;3.70;;
21810;SDS011;11067;48.788;9.208;2022-11-02T02:45:42;9.43;;;4.25;;
21810;SDS011;11067;48.788;9.208;2022-11-02T02:48:21;6.97;;;3.80;;
21810;SDS011;11067;48.788;9.208;2022-11-02T02:51:05;9.68;;;4.13;;
21810;SDS011;11067;48.788;9.208;2022-11-02T02:53:38;8.70;;;4.13;;
21810;SDS011;11067;48.788;9.208;2022-11-02T02:56:07;10.15;;;4.72;;
21810;SDS011;11067;48.788;9.208;2022-11-02T02:58:44;6.60;;;3.80;;
21810;SDS011;11067;48.788;9.208;2022-11-02T03:01:16;7.33;;;3.70;;
21810;SDS011;11067;48.788;9.208;2022-11-02T03:03:43;8.67;;;4.00;;
21810;SDS011;11067;48.788;9.208;2022-11-02T03:06:19;7.40;;;4.15;;
21810;SDS011;11067;48.788;9.208;2022-11-02T03:08:55;7.88;;;4.10;;
21810;SDS011;11067;48.788;9.208;2022-11-02T03:14:58;9.13;;;3.83;;
21810;SDS011;11067;48.788;9.208;2022-11-02T03:17:48;6.80;;;4.07;;
21810;SDS011;11067;48.788;9.208;2022-11-02T03:23:16;7.90;;;3.95;;
21810;SDS011;11067;48.788;9.208;2022-11-02T03:25:59;5.78;;;3.90;;
21810;SDS011;11067;48.788;9.208;2022-11-02T03:34:17;6.45;;;3.80;;
21810;SDS011;11067;48.788;9.208;2022-11-02T03:36:59;8.15;;;3.83;;
21810;SDS011;11067;48.788;9.208;2022-11-02T03:39:35;8.35;;;3.97;;
21810;SDS011;11067;48.788;9.208;2022-11-02T03:42:05;5.63;;;3.55;;
21810;SDS011;11067;48.788;9.208;2022-11-02T03:44:34;6.22;;;3.60;;
21810;SDS011;11067;48.788;9.208;2022-11-02T03:47:03;7.10;;;3.88;;
21810;SDS011;11067;48.788;9.208;2022-11-02T03:49:32;9.10;;;4.00;;
21810;SDS011;11067;48.788;9.208;2022-11-02T03:52:00;7.40;;;3.65;;
21810;SDS011;11067;48.788;9.208;2022-11-02T03:57:35;7.72;;;3.83;;
21810;SDS011;11067;48.788;9.208;2022-11-02T04:00:22;7.27;;;3.97;;
21810;SDS011;11067;48.788;9.208;2022-11-02T04:02:59;8.83;;;3.83;;
21810;SDS011;11067;48.788;9.208;2022-11-02T04:05:31;8.30;;;4.30;;
21810;SDS011;11067;48.788;9.208;2022-11-02T04:07:58;7.43;;;4.03;;
21810;SDS011;11067;48.788;9.208;2022-11-02T04:10:43;7.00;;;4.03;;
21810;SDS011;11067;48.788;9.208;2022-11-02T04:13:27;7.85;;;3.53;;
21810;SDS011;11067;48.788;9.208;2022-11-02T04:16:12;7.88;;;3.95;;
21810;SDS011;11067;48.788;9.208;2022-11-02T04:18:38;6.80;;;3.77;;
21810;SDS011;11067;48.788;9.208;2022-11-02T04:21:22;8.75;;;3.90;;
21810;SDS011;11067;48.788;9.208;2022-11-02T04:23:48;7.88;;;4.05;;
21810;SDS011;11067;48.788;9.208;2022-11-02T04:26:32;10.20;;;4.22;;
21810;SDS011;11067;48.788;9.208;2022-11-02T04:28:57;11.23;;;4.38;;
21810;SDS011;11067;48.788;9.208;2022-11-02T04:31:23;9.73;;;4.72;;
21810;SDS011;11067;48.788;9.208;2022-11-02T04:33:49;9.03;;;4.30;;
21810;SDS011;11067;48.788;9.208;2022-11-02T04:36:14;8.23;;;4.10;;
21810;SDS011;11067;48.788;9.208;2022-11-02T04:38:40;8.88;;;4.03;;
21810;SDS011;11067;48.788;9.208;2022-11-02T04:41:13;10.07;;;4.18;;
21810;SDS011;11067;48.788;9.208;2022-11-02T04:43:58;5.65;;;3.70;;
21810;SDS011;11067;48.788;9.208;2022-11-02T04:46:25;8.10;;;3.83;;
21810;SDS011;11067;48.788;9.208;2022-11-02T04:48:52;6.32;;;4.60;;
21810;SDS011;11067;48.788;9.208;2022-11-02T04:51:18;10.63;;;4.10;;
21810;SDS011;11067;48.788;9.208;2022-11-02T04:53:44;9.53;;;4.37;;
21810;SDS011;11067;48.788;9.208;2022-11-02T04:56:11;10.48;;;4.53;;
21810;SDS011;11067;48.788;9.208;2022-11-02T04:58:36;8.13;;;4.30;;
21810;SDS011;11067;48.788;9.208;2022-11-02T05:01:05;9.40;;;4.38;;
21810;SDS011;11067;48.788;9.208;2022-11-02T05:03:31;6.80;;;3.80;;
21810;SDS011;11067;48.788;9.208;2022-11-02T05:05:57;12.27;;;4.50;;
21810;SDS011;11067;48.788;9.208;2022-11-02T05:08:23;7.77;;;4.80;;
21810;SDS011;11067;48.788;9.208;2022-11-02T05:10:48;7.40;;;4.03;;
21810;SDS011;11067;48.788;9.208;2022-11-02T05:13:17;8.20;;;3.70;;
21810;SDS011;11067;48.788;9.208;2022-11-02T05:15:42;8.38;;;4.15;;
21810;SDS011;11067;48.788;9.208;2022-11-02T05:18:08;7.83;;;4.17;;
21810;SDS011;11067;48.788;9.208;2022-11-02T05:20:33;11.57;;;4.67;;
21810;SDS011;11067;48.788;9.208;2022-11-02T05:22:59;9.20;;;3.67;;
21810;SDS011;11067;48.788;9.208;2022-11-02T05:25:25;6.55;;;3.70;;
21810;SDS011;11067;48.788;9.208;2022-11-02T05:27:50;8.97;;;3.60;;
21810;SDS011;11067;48.788;9.208;2022-11-02T05:30:16;8.43;;;4.20;;
21810;SDS011;11067;48.788;9.208;2022-11-02T05:32:41;12.43;;;4.50;;
21810;SDS011;11067;48.788;9.208;2022-11-02T05:35:07;8.75;;;4.20;;
21810;SDS011;11067;48.788;9.208;2022-11-02T05:37:33;10.07;;;4.03;;
21810;SDS011;11067;48.788;9.208;2022-11-02T05:39:58;8.85;;;3.85;;
21810;SDS011;11067;48.788;9.208;2022-11-02T05:42:24;8.37;;;4.27;;
21810;SDS011;11067;48.788;9.208;2022-11-02T05:44:49;9.57;;;3.87;;
21810;SDS011;11067;48.788;9.208;2022-11-02T05:47:15;8.17;;;4.00;;
21810;SDS011;11067;48.788;9.208;2022-11-02T05:49:41;11.57;;;4.50;;
21810;SDS011;11067;48.788;9.208;2022-11-02T05:52:06;14.13;;;4.57;;
21810;SDS011;11067;48.788;9.208;2022-11-02T05:54:32;14.88;;;4.80;;
21810;SDS011;11067;48.788;9.208;2022-11-02T05:56:58;9.80;;;3.73;;
21810;SDS011;11067;48.788;9.208;2022-11-02T05:59:23;9.73;;;4.37;;
21810;SDS011;11067;48.788;9.208;2022-11-02T06:01:49;8.70;;;4.07;;
21810;SDS011;11067;48.788;9.208;2022-11-02T06:04:14;7.97;;;2.42;;
21810;SDS011;11067;48.788;9.208;2022-11-02T06:06:40;8.53;;;2.83;;
21810;SDS011;11067;48.788;9.208;2022-11-02T06:09:05;4.63;;;1.77;;
21810;SDS011;11067;48.788;9.208;2022-11-02T06:11:31;5.47;;;1.70;;
21810;SDS011;11067;48.788;9.208;2022-11-02T06:13:56;7.45;;;1.75;;
21810;SDS011;11067;48.788;9.208;2022-11-02T06:16:22;4.33;;;2.10;;
21810;SDS011;11067;48.788;9.208;2022-11-02T06:18:48;6.23;;;2.57;;
21810;SDS011;11067;48.788;9.208;2022-11-02T06:21:13;6.63;;;2.08;;
21810;SDS011;11067;48.788;9.208;2022-11-02T06:23:39;3.50;;;1.67;;
21810;SDS011;11067;48.788;9.208;2022-11-02T06:26:07;8.80;;;2.40;;
21810;SDS011;11067;48.788;9.208;2022-11-02T06:28:34;4.07;;;2.00;;
21810;SDS011;11067;48.788;9.208;2022-11-02T06:31:00;10.03;;;2.20;;
21810;SDS011;11067;48.788;9.208;2022-11-02T06:33:26;6.87;;;1.73;;
21810;SDS011;11067;48.788;9.208;2022-11-02T06:35:52;6.80;;;1.98;;
21810;SDS011;11067;48.788;9.208;2022-11-02T06:38:18;4.15;;;1.90;;
21810;SDS011;11067;48.788;9.208;2022-11-02T06:40:54;8.45;;;2.80;;
21810;SDS011;11067;48.788;9.208;2022-11-02T06:43:28;4.80;;;1.80;;
21810;SDS011;11067;48.788;9.208;2022-11-02T06:45:54;6.75;;;2.40;;
21810;SDS011;11067;48.788;9.208;2022-11-02T06:48:21;10.05;;;2.80;;
21810;SDS011;11067;48.788;9.208;2022-11-02T06:50:46;9.55;;;2.35;;
21810;SDS011;11067;48.788;9.208;2022-11-02T06:53:12;13.82;;;2.63;;
21810;SDS011;11067;48.788;9.208;2022-11-02T06:55:38;4.10;;;1.90;;
21810;SDS011;11067;48.788;9.208;2022-11-02T06:58:03;6.63;;;2.20;;
21810;SDS011;11067;48.788;9.208;2022-11-02T07:00:29;4.17;;;2.10;;
21810;SDS011;11067;48.788;9.208;2022-11-02T07:02:58;8.30;;;2.70;;
21810;SDS011;11067;48.788;9.208;2022-11-02T07:05:25;5.67;;;1.83;;
21810;SDS011;11067;48.788;9.208;2022-11-02T07:07:54;4.87;;;1.87;;
21810;SDS011;11067;48.788;9.208;2022-11-02T07:10:20;6.30;;;1.92;;
21810;SDS011;11067;48.788;9.208;2022-11-02T07:12:46;4.05;;;2.03;;
21810;SDS011;11067;48.788;9.208;2022-11-02T07:15:11;6.10;;;2.40;;
21810;SDS011;11067;48.788;9.208;2022-11-02T07:17:38;5.10;;;1.70;;
21810;SDS011;11067;48.788;9.208;2022-11-02T07:20:04;4.75;;;1.77;;
21810;SDS011;11067;48.788;9.208;2022-11-02T07:22:30;8.38;;;2.17;;
21810;SDS011;11067;48.788;9.208;2022-11-02T07:24:55;5.37;;;1.60;;
21810;SDS011;11067;48.788;9.208;2022-11-02T07:27:21;6.30;;;2.35;;
21810;SDS011;11067;48.788;9.208;2022-11-02T07:29:47;7.97;;;1.80;;
21810;SDS011;11067;48.788;9.208;2022-11-02T07:32:12;5.90;;;2.20;;
21810;SDS011;11067;48.788;9.208;2022-11-02T07:34:38;6.40;;;2.00;;
21810;SDS011;11067;48.788;9.208;2022-11-02T07:37:03;3.70;;;1.58;;
21810;SDS011;11067;48.788;9.208;2022-11-02T07:39:29;6.10;;;1.80;;
21810;SDS011;11067;48.788;9.208;2022-11-02T07:41:54;4.87;;;1.70;;
21810;SDS011;11067;48.788;9.208;2022-11-02T07:44:20;3.70;;;1.85;;
21810;SDS011;11067;48.788;9.208;2022-11-02T07:46:45;5.70;;;1.93;;
21810;SDS011;11067;48.788;9.208;2022-11-02T07:49:11;9.10;;;2.30;;
21810;SDS011;11067;48.788;9.208;2022-11-02T07:51:36;5.53;;;1.77;;
21810;SDS011;11067;48.788;9.208;2022-11-02T07:54:02;6.80;;;2.20;;
21810;SDS011;11067;48.788;9.208;2022-11-02T07:56:28;4.20;;;2.00;;
21810;SDS011;11067;48.788;9.208;2022-11-02T07:58:53;4.68;;;1.65;;
21810;SDS011;11067;48.788;9.208;2022-11-02T08:01:19;8.63;;;1.97;;
21810;SDS011;11067;48.788;9.208;2022-11-02T08:03:44;6.00;;;1.73;;
21810;SDS011;11067;48.788;9.208;2022-11-02T08:06:10;6.53;;;2.00;;
21810;SDS011;11067;48.788;9.208;2022-11-02T08:08:35;4.67;;;1.70;;
21810;SDS011;11067;48.788;9.208;2022-11-02T08:11:02;7.20;;;2.00;;
21810;SDS011;11067;48.788;9.208;2022-11-02T08:13:32;5.65;;;3.10;;
21810;SDS011;11067;48.788;9.208;2022-11-02T08:15:58;14.40;;;3.00;;
21810;SDS011;11067;48.788;9.208;2022-11-02T08:18:25;8.83;;;1.80;;
21810;SDS011;11067;48.788;9.208;2022-11-02T08:20:54;5.72;;;1.70;;
21810;SDS011;11067;48.788;9.208;2022-11-02T08:23:21;4.80;;;1.47;;
21810;SDS011;11067;48.788;9.208;2022-11-02T08:25:48;7.13;;;3.10;;
21810;SDS011;11067;48.788;9.208;2022-11-02T08:28:16;6.03;;;2.08;;
21810;SDS011;11067;48.788;9.208;2022-11-02T08:30:44;4.23;;;1.90;;
21810;SDS011;11067;48.788;9.208;2022-11-02T08:33:10;5.77;;;1.80;;
21810;SDS011;11067;48.788;9.208;2022-11-02T08:35:37;5.80;;;1.50;;
21810;SDS011;11067;48.788;9.208;2022-11-02T08:38:04;5.63;;;1.90;;
21810;SDS011;11067;48.788;9.208;2022-11-02T08:40:30;6.30;;;1.92;;
21810;SDS011;11067;48.788;9.208;2022-11-02T08:42:57;7.03;;;1.57;;
21810;SDS011;11067;48.788;9.208;2022-11-02T08:45:24;3.47;;;1.67;;
21810;SDS011;11067;48.788;9.208;2022-11-02T08:47:50;6.00;;;1.70;;
21810;SDS011;11067;48.788;9.208;2022-11-02T08:50:16;4.57;;;1.40;;
21810;SDS011;11067;48.788;9.208;2022-11-02T08:52:41;4.57;;;1.70;;
21810;SDS011;11067;48.788;9.208;2022-11-02T08:55:07;4.80;;;1.40;;
21810;SDS011;11067;48.788;9.208;2022-11-02T08:57:42;6.87;;;1.83;;
21810;SDS011;11067;48.788;9.208;2022-11-02T09:00:12;6.05;;;1.70;;
21810;SDS011;11067;48.788;9.208;2022-11-02T09:02:38;4.90;;;1.47;;
21810;SDS011;11067;48.788;9.208;2022-11-02T09:05:03;6.40;;;1.60;;
21810;SDS011;11067;48.788;9.208;2022-11-02T09:07:29;4.45;;;1.85;;
21810;SDS011;11067;48.788;9.208;2022-11-02T09:09:55;2.50;;;1.50;;
21810;SDS011;11067;48.788;9.208;2022-11-02T09:12:20;8.20;;;1.60;;
21810;SDS011;11067;48.788;9.208;2022-11-02T09:14:46;4.55;;;1.90;;
21810;SDS011;11067;48.788;9.208;2022-11-02T09:17:11;4.50;;;1.45;;
21810;SDS011;11067;48.788;9.208;2022-11-02T09:19:37;3.57;;;1.80;;
21810;SDS011;11067;48.788;9.208;2022-11-02T09:22:02;3.85;;;1.38;;
21810;SDS011;11067;48.788;9.208;2022-11-02T09:24:28;5.63;;;1.80;;
21810;SDS011;11067;48.788;9.208;2022-11-02T09:26:54;4.50;;;1.40;;
21810;SDS011;11067;48.788;9.208;2022-11-02T09:29:19;4.90;;;1.50;;
21810;SDS011;11067;48.788;9.208;2022-11-02T09:31:45;4.80;;;1.77;;
21810;SDS011;11067;48.788;9.208;2022-11-02T09:34:12;2.60;;;1.23;;
21810;SDS011;11067;48.788;9.208;2022-11-02T09:36:38;5.87;;;1.57;;
21810;SDS011;11067;48.788;9.208;2022-11-02T09:39:04;8.67;;;1.67;;
21810;SDS011;11067;48.788;9.208;2022-11-02T09:41:33;6.17;;;1.50;;
21810;SDS011;11067;48.788;9.208;2022-11-02T09:44:10;5.72;;;1.58;;
21810;SDS011;11067;48.788;9.208;2022-11-02T09:46:43;3.00;;;1.37;;
21810;SDS011;11067;48.788;9.208;2022-11-02T09:49:20;6.93;;;1.77;;
21810;SDS011;11067;48.788;9.208;2022-11-02T09:51:51;5.55;;;1.75;;
21810;SDS011;11067;48.788;9.208;2022-11-02T09:54:22;8.60;;;1.77;;
21810;SDS011;11067;48.788;9.208;2022-11-02T09:56:54;4.90;;;1.83;;
21810;SDS011;11067;48.788;9.208;2022-11-02T09:59:23;5.55;;;1.90;;
21810;SDS011;11067;48.788;9.208;2022-11-02T10:17:28;5.67;;;1.90;;
21810;SDS011;11067;48.788;9.208;2022-11-02T10:19:58;4.40;;;1.70;;
21810;SDS011;11067;48.788;9.208;2022-11-02T10:22:31;6.63;;;1.38;;
21810;SDS011;11067;48.788;9.208;2022-11-02T10:25:00;3.35;;;1.52;;
21810;SDS011;11067;48.788;9.208;2022-11-02T10:27:31;9.35;;;1.50;;
21810;SDS011;11067;48.788;9.208;2022-11-02T10:32:26;3.97;;;1.40;;
21810;SDS011;11067;48.788;9.208;2022-11-02T10:34:52;4.75;;;1.27;;
21810;SDS011;11067;48.788;9.208;2022-11-02T10:46:11;4.78;;;1.98;;
21810;SDS011;11067;48.788;9.208;2022-11-02T10:48:57;6.27;;;1.70;;
21810;SDS011;11067;48.788;9.208;2022-11-02T10:51:43;2.90;;;1.50;;
21810;SDS011;11067;48.788;9.208;2022-11-02T10:54:12;5.68;;;1.50;;
21810;SDS011;11067;48.788;9.208;2022-11-02T10:56:39;4.97;;;1.50;;
21810;SDS011;11067;48.788;9.208;2022-11-02T10:59:19;6.00;;;1.77;;
21810;SDS011;11067;48.788;9.208;2022-11-02T11:04:26;4.43;;;1.53;;
21810;SDS011;11067;48.788;9.208;2022-11-02T11:06:53;5.88;;;1.50;;
21810;SDS011;11067;48.788;9.208;2022-11-02T11:09:27;5.27;;;1.70;;
21810;SDS011;11067;48.788;9.208;2022-11-02T11:11:55;5.50;;;1.52;;
21810;SDS011;11067;48.788;9.208;2022-11-02T11:14:24;6.22;;;1.45;;
21810;SDS011;11067;48.788;9.208;2022-11-02T11:16:53;3.50;;;1.20;;
21810;SDS011;11067;48.788;9.208;2022-11-02T11:19:32;4.97;;;1.55;;
21810;SDS011;11067;48.788;9.208;2022-11-02T11:22:24;6.93;;;1.67;;
21810;SDS011;11067;48.788;9.208;2022-11-02T11:24:50;3.13;;;1.45;;
21810;SDS011;11067;48.788;9.208;2022-11-02T11:27:22;6.63;;;1.70;;
21810;SDS011;11067;48.788;9.208;2022-11-02T11:32:21;6.97;;;1.92;;
21810;SDS011;11067;48.788;9.208;2022-11-02T11:34:58;8.93;;;1.75;;
21810;SDS011;11067;48.788;9.208;2022-11-02T11:37:26;7.30;;;1.60;;
21810;SDS011;11067;48.788;9.208;2022-11-02T11:40:00;4.07;;;1.80;;
21810;SDS011;11067;48.788;9.208;2022-11-02T11:42:41;6.30;;;1.50;;
21810;SDS011;11067;48.788;9.208;2022-11-02T11:45:13;6.22;;;1.42;;
21810;SDS011;11067;48.788;9.208;2022-11-02T11:47:44;6.50;;;1.83;;
21810;SDS011;11067;48.788;9.208;2022-11-02T11:50:18;6.95;;;1.90;;
21810;SDS011;11067;48.788;9.208;2022-11-02T11:52:44;7.95;;;1.77;;
21810;SDS011;11067;48.788;9.208;2022-11-02T11:55:23;6.63;;;1.80;;
21810;SDS011;11067;48.788;9.208;2022-11-02T12:01:06;7.32;;;1.65;;
21810;SDS011;11067;48.788;9.208;2022-11-02T12:03:50;4.30;;;1.60;;
21810;SDS011;11067;48.788;9.208;2022-11-02T12:06:38;5.07;;;1.50;;
21810;SDS011;11067;48.788;9.208;2022-11-02T12:25:55;4.85;;;1.33;;
21810;SDS011;11067;48.788;9.208;2022-11-02T12:28:47;5.47;;;1.50;;
21810;SDS011;11067;48.788;9.208;2022-11-02T12:31:32;4.73;;;1.37;;
21810;SDS011;11067;48.788;9.208;2022-11-02T12:36:44;5.93;;;1.52;;
21810;SDS011;11067;48.788;9.208;2022-11-02T12:44:40;8.18;;;1.80;;
21810;SDS011;11067;48.788;9.208;2022-11-02T12:55:55;3.50;;;1.20;;
21810;SDS011;11067;48.788;9.208;2022-11-02T12:58:32;5.25;;;1.50;;
21810;SDS011;11067;48.788;9.208;2022-11-02T13:01:12;6.85;;;1.80;;
21810;SDS011;11067;48.788;9.208;2022-11-02T13:06:44;6.10;;;1.70;;
21810;SDS011;11067;48.788;9.208;2022-11-02T13:09:24;7.80;;;1.67;;
21810;SDS011;11067;48.788;9.208;2022-11-02T13:12:00;3.80;;;1.30;;
21810;SDS011;11067;48.788;9.208;2022-11-02T13:14:35;2.53;;;1.13;;
21810;SDS011;11067;48.788;9.208;2022-11-02T13:17:23;4.43;;;1.40;;
21810;SDS011;11067;48.788;9.208;2022-11-02T13:19:57;4.85;;;1.67;;
21810;SDS011;11067;48.788;9.208;2022-11-02T13:22:26;3.30;;;1.25;;
21810;SDS011;11067;48.788;9.208;2022-11-02T13:25:01;7.72;;;1.70;;
21810;SDS011;11067;48.788;9.208;2022-11-02T13:27:47;5.70;;;1.90;;
21810;SDS011;11067;48.788;9.208;2022-11-02T13:30:18;7.07;;;2.00;;
21810;SDS011;11067;48.788;9.208;2022-11-02T13:35:26;5.30;;;1.45;;
21810;SDS011;11067;48.788;9.208;2022-11-02T13:38:17;5.85;;;1.90;;
21810;SDS011;11067;48.788;9.208;2022-11-02T13:40:59;6.70;;;1.40;;
21810;SDS011;11067;48.788;9.208;2022-11-02T13:48:54;6.47;;;1.90;;
21810;SDS011;11067;48.788;9.208;2022-11-02T13:51:28;6.60;;;1.70;;
21810;SDS011;11067;48.788;9.208;2022-11-02T13:54:17;4.22;;;1.65;;
21810;SDS011;11067;48.788;9.208;2022-11-02T13:56:55;6.75;;;1.70;;
21810;SDS011;11067;48.788;9.208;2022-11-02T13:59:25;6.85;;;1.42;;
21810;SDS011;11067;48.788;9.208;2022-11-02T14:01:54;4.95;;;1.60;;
21810;SDS011;11067;48.788;9.208;2022-11-02T14:04:21;8.35;;;1.85;;
21810;SDS011;11067;48.788;9.208;2022-11-02T14:06:55;7.30;;;1.77;;
21810;SDS011;11067;48.788;9.208;2022-11-02T14:09:32;7.15;;;1.50;;
21810;SDS011;11067;48.788;9.208;2022-11-02T14:12:24;3.67;;;1.40;;
21810;SDS011;11067;48.788;9.208;2022-11-02T14:25:46;3.60;;;1.70;;
21810;SDS011;11067;48.788;9.208;2022-11-02T14:30:45;6.95;;;1.75;;
21810;SDS011;11067;48.788;9.208;2022-11-02T14:44:36;6.95;;;1.98;;
21810;SDS011;11067;48.788;9.208;2022-11-02T14:47:26;6.95;;;2.30;;
21810;SDS011;11067;48.788;9.208;2022-11-02T14:49:55;6.50;;;1.90;;
21810;SDS011;11067;48.788;9.208;2022-11-02T14:52:30;5.38;;;1.88;;
21810;SDS011;11067;48.788;9.208;2022-11-02T14:57:49;4.97;;;1.60;;
21810;SDS011;11067;48.788;9.208;2022-11-02T15:00:19;5.30;;;1.77;;
21810;SDS011;11067;48.788;9.208;2022-11-02T15:02:45;4.70;;;1.47;;
21810;SDS011;11067;48.788;9.208;2022-11-02T15:05:32;5.70;;;2.17;;
21810;SDS011;11067;48.788;9.208;2022-11-02T15:08:06;8.23;;;2.08;;
21810;SDS011;11067;48.788;9.208;2022-11-02T15:10:43;8.18;;;2.22;;
21810;SDS011;11067;48.788;9.208;2022-11-02T15:23:53;9.38;;;2.17;;
21810;SDS011;11067;48.788;9.208;2022-11-02T15:26:35;6.57;;;2.08;;
21810;SDS011;11067;48.788;9.208;2022-11-02T15:29:35;6.53;;;2.45;;
21810;SDS011;11067;48.788;9.208;2022-11-02T15:32:07;6.75;;;1.95;;
21810;SDS011;11067;48.788;9.208;2022-11-02T15:34:39;7.80;;;2.58;;
21810;SDS011;11067;48.788;9.208;2022-11-02T15:37:10;9.47;;;2.50;;
21810;SDS011;11067;48.788;9.208;2022-11-02T15:39:46;10.15;;;2.30;;
21810;SDS011;11067;48.788;9.208;2022-11-02T15:42:26;4.43;;;1.90;;
21810;SDS011;11067;48.788;9.208;2022-11-02T15:53:43;5.70;;;2.33;;
21810;SDS011;11067;48.788;9.208;2022-11-02T15:56:45;10.82;;;2.75;;
21810;SDS011;11067;48.788;9.208;2022-11-02T15:59:34;8.52;;;2.53;;
21810;SDS011;11067;48.788;9.208;2022-11-02T16:04:30;15.83;;;3.30;;
21810;SDS011;11067;48.788;9.208;2022-11-02T16:06:55;10.63;;;3.00;;
21810;SDS011;11067;48.788;9.208;2022-11-02T16:12:14;8.50;;;2.50;;
21810;SDS011;11067;48.788;9.208;2022-11-02T16:14:54;8.57;;;2.90;;
21810;SDS011;11067;48.788;9.208;2022-11-02T16:17:23;10.43;;;2.60;;
21810;SDS011;11067;48.788;9.208;2022-11-02T16:19:50;11.07;;;2.70;;
21810;SDS011;11067;48.788;9.208;2022-11-02T16:22:21;10.88;;;2.92;;
21810;SDS011;11067;48.788;9.208;2022-11-02T16:24:49;11.50;;;3.00;;
21810;SDS011;11067;48.788;9.208;2022-11-02T16:27:16;14.15;;;3.30;;
21810;SDS011;11067;48.788;9.208;2022-11-02T16:29:42;10.43;;;3.25;;
21810;SDS011;11067;48.788;9.208;2022-11-02T16:32:11;12.32;;;3.28;;
21810;SDS011;11067;48.788;9.208;2022-11-02T16:34:36;11.47;;;4.20;;
21810;SDS011;11067;48.788;9.208;2022-11-02T16:37:03;9.13;;;3.58;;
21810;SDS011;11067;48.788;9.208;2022-11-02T16:39:34;12.25;;;4.35;;
21810;SDS011;11067;48.788;9.208;2022-11-02T16:42:09;13.38;;;5.00;;
21810;SDS011;11067;48.788;9.208;2022-11-02T16:44:42;11.82;;;4.13;;
21810;SDS011;11067;48.788;9.208;2022-11-02T16:47:20;11.67;;;4.40;;
21810;SDS011;11067;48.788;9.208;2022-11-02T16:52:20;10.83;;;4.60;;
21810;SDS011;11067;48.788;9.208;2022-11-02T16:54:48;16.08;;;5.10;;
21810;SDS011;11067;48.788;9.208;2022-11-02T16:57:24;11.20;;;4.82;;
21810;SDS011;11067;48.788;9.208;2022-11-02T17:02:23;14.27;;;4.60;;
21810;SDS011;11067;48.788;9.208;2022-11-02T17:05:03;14.35;;;4.70;;
21810;SDS011;11067;48.788;9.208;2022-11-02T17:07:34;14.90;;;4.82;;
21810;SDS011;11067;48.788;9.208;2022-11-02T17:10:04;16.07;;;4.77;;
21810;SDS011;11067;48.788;9.208;2022-11-02T17:12:32;13.25;;;4.70;;
21810;SDS011;11067;48.788;9.208;2022-11-02T17:15:10;12.75;;;4.95;;
21810;SDS011;11067;48.788;9.208;2022-11-02T17:17:46;14.90;;;4.70;;
21810;SDS011;11067;48.788;9.208;2022-11-02T17:22:57;9.85;;;4.00;;
21810;SDS011;11067;48.788;9.208;2022-11-02T17:27:53;9.88;;;4.32;;
21810;SDS011;11067;48.788;9.208;2022-11-02T17:32:57;15.10;;;5.75;;
21810;SDS011;11067;48.788;9.208;2022-11-02T17:35:24;12.32;;;5.03;;
21810;SDS011;11067;48.788;9.208;2022-11-02T17:37:51;16.25;;;5.15;;
21810;SDS011;11067;48.788;9.208;2022-11-02T17:40:17;16.10;;;5.30;;
21810;SDS011;11067;48.788;9.208;2022-11-02T17:42:44;12.25;;;5.03;;
21810;SDS011;11067;48.788;9.208;2022-11-02T17:45:29;11.10;;;4.90;;
21810;SDS011;11067;48.788;9.208;2022-11-02T17:47:57;12.40;;;4.40;;
21810;SDS011;11067;48.788;9.208;2022-11-02T17:50:25;11.95;;;4.82;;
21810;SDS011;11067;48.788;9.208;2022-11-02T17:52:52;14.25;;;4.88;;
21810;SDS011;11067;48.788;9.208;2022-11-02T17:55:19;12.95;;;4.38;;
21810;SDS011;11067;48.788;9.208;2022-11-02T17:57:52;14.43;;;5.40;;
21810;SDS011;11067;48.788;9.208;2022-11-02T18:00:18;11.37;;;5.07;;